Time;durP1;ratioP1;P1;durP2;ratioP2;P2;SDS_P1;SDS_P2;PMS_P1;PMS_P2;Temp;Humidity;BMP_temperature;BMP_pressure;BME280_temperature;BME280_humidity;BME280_pressure;Samples;Min_cycle;Max_cycle;Signal;HPM_P1;HPM_P2
2024/04/13 00:01:55;;;;;;;1.10;1.00;;;;;;;8.38;57.23;99793.03;5435939;26;20021;-69
2024/04/13 00:04:23;;;;;;;1.48;1.00;;;;;;;8.09;56.97;99755.00;5467353;26;20002;-70
2024/04/13 00:06:50;;;;;;;2.05;1.60;;;;;;;8.23;56.94;99791.31;5434263;26;20479;-69
2024/04/13 00:09:16;;;;;;;1.17;0.80;;;;;;;8.21;57.11;99795.63;5466597;26;20024;-70
2024/04/13 00:11:42;;;;;;;1.00;0.90;;;;;;;8.18;57.32;99799.94;5465658;26;19999;-69
2024/04/13 00:14:08;;;;;;;0.98;0.80;;;;;;;8.06;57.38;99786.09;5465011;26;20002;-69
2024/04/13 00:16:34;;;;;;;1.00;0.90;;;;;;;7.95;57.39;99764.50;5464560;26;20017;-69
2024/04/13 00:19:00;;;;;;;1.45;0.90;;;;;;;8.09;57.52;99788.69;5465595;26;20007;-69
2024/04/13 00:21:27;;;;;;;5.10;2.30;;;;;;;7.93;57.64;99769.69;5467908;26;20002;-70
2024/04/13 00:23:54;;;;;;;1.20;0.90;;;;;;;8.06;57.78;99786.09;5438991;26;20445;-69
2024/04/13 00:26:24;;;;;;;1.48;0.80;;;;;;;7.97;58.16;99791.28;5390315;26;20013;-68
2024/04/13 00:28:53;;;;;;;1.45;0.77;;;;;;;7.91;57.62;99784.38;5435823;26;20692;-69
2024/04/13 00:31:20;;;;;;;2.10;0.70;;;;;;;8.01;57.72;99807.69;5463265;26;20016;-69
2024/04/13 00:33:47;;;;;;;0.93;0.80;;;;;;;8.02;57.38;99818.06;5469934;26;20013;-69
2024/04/13 00:36:13;;;;;;;1.10;0.80;;;;;;;7.97;57.69;99805.09;5484245;26;20002;-69
2024/04/13 00:38:39;;;;;;;1.80;0.98;;;;;;;7.63;57.95;99770.47;5434286;26;20010;-68
2024/04/13 00:41:05;;;;;;;1.35;0.90;;;;;;;7.91;58.12;99832.72;5365995;26;20013;-68
2024/04/13 00:43:31;;;;;;;0.75;0.73;;;;;;;7.84;57.84;99811.97;5466424;26;20111;-67
2024/04/13 00:46:06;;;;;;;3.58;0.90;;;;;;;7.79;57.91;99818.88;5463872;26;20102;-68
2024/04/13 00:48:36;;;;;;;1.33;0.95;;;;;;;7.75;57.91;99811.09;5435028;26;20013;-68
2024/04/13 00:51:04;;;;;;;0.80;0.80;;;;;;;7.77;57.69;99830.97;5463669;26;20053;-68
2024/04/13 00:53:38;;;;;;;1.15;0.85;;;;;;;7.67;58.03;99813.66;5467144;26;20013;-68
2024/04/13 00:56:09;;;;;;;2.38;0.80;;;;;;;7.62;57.83;99820.53;5465725;26;20006;-69
2024/04/13 00:58:36;;;;;;;1.42;0.77;;;;;;;7.50;57.59;99806.69;5452162;26;20008;-68
2024/04/13 01:01:05;;;;;;;2.60;0.70;;;;;;;7.19;57.92;99769.47;5435440;26;20022;-69
2024/04/13 01:03:35;;;;;;;1.55;1.17;;;;;;;7.20;57.98;99776.38;5458165;26;20031;-68
2024/04/13 01:06:01;;;;;;;2.10;0.73;;;;;;;7.36;57.73;99805.78;5462770;26;20002;-69
2024/04/13 01:08:28;;;;;;;0.98;0.80;;;;;;;7.26;57.82;99798.81;5467430;26;20112;-68
2024/04/13 01:10:57;;;;;;;2.22;1.00;;;;;;;7.44;57.54;99837.72;5467301;26;20036;-68
2024/04/13 01:13:24;;;;;;;2.65;1.55;;;;;;;7.29;57.46;99811.78;5438107;26;20432;-69
2024/04/13 01:15:50;;;;;;;3.45;0.80;;;;;;;7.35;57.28;99838.56;5439153;26;20010;-68
2024/04/13 01:18:16;;;;;;;1.17;0.70;;;;;;;7.18;57.43;99817.75;5452626;26;20003;-70
2024/04/13 01:20:42;;;;;;;2.20;0.80;;;;;;;7.17;57.30;99839.31;5471326;26;20361;-68
2024/04/13 01:23:14;;;;;;;0.70;0.70;;;;;;;7.16;57.44;99836.72;5465133;26;20025;-69
2024/04/13 01:25:41;;;;;;;1.65;0.70;;;;;;;7.16;57.37;99847.09;5469015;26;19998;-68
2024/04/13 01:28:12;;;;;;;2.05;0.75;;;;;;;7.02;57.01;99823.72;5466147;26;21896;-69
2024/04/13 01:30:39;;;;;;;1.40;0.70;;;;;;;7.07;57.17;99846.16;5465495;26;19994;-69
2024/04/13 01:33:06;;;;;;;2.13;0.80;;;;;;;7.05;56.70;99842.72;5468565;26;20014;-68
2024/04/13 01:35:34;;;;;;;1.88;0.77;;;;;;;7.01;57.02;99834.91;5439510;26;20026;-69
2024/04/13 01:38:00;;;;;;;1.63;0.70;;;;;;;7.00;56.93;99823.72;5425983;26;20012;-69
2024/04/13 01:40:26;;;;;;;0.68;0.60;;;;;;;6.91;56.12;99834.88;5469776;26;20369;-69
2024/04/13 01:42:52;;;;;;;1.65;0.70;;;;;;;6.85;56.56;99834.81;5439092;26;20002;-68
2024/04/13 01:45:19;;;;;;;2.20;0.80;;;;;;;6.85;56.52;99833.94;5439765;26;20002;-69
2024/04/13 01:47:45;;;;;;;0.88;0.73;;;;;;;6.82;56.02;99832.22;5433348;26;20020;-69
2024/04/13 01:50:12;;;;;;;0.85;0.70;;;;;;;6.77;55.81;99832.19;5407205;26;20015;-70
2024/04/13 01:52:39;;;;;;;3.95;1.13;;;;;;;6.70;56.54;99843.34;5470721;26;20752;-68
2024/04/13 01:55:06;;;;;;;1.05;0.80;;;;;;;6.58;55.95;99802.72;5439056;26;20002;-69
2024/04/13 01:57:32;;;;;;;3.17;1.45;;;;;;;6.68;56.56;99836.44;5407992;26;20507;-69
2024/04/13 01:59:58;;;;;;;1.90;1.10;;;;;;;6.58;56.38;99822.56;5467551;26;20014;-70
2024/04/13 02:02:25;;;;;;;1.02;0.80;;;;;;;6.58;56.29;99810.50;5468905;26;20305;-69
2024/04/13 02:04:51;;;;;;;2.42;1.20;;;;;;;6.59;55.96;99816.53;5471205;26;20500;-70
2024/04/13 02:07:17;;;;;;;1.30;0.70;;;;;;;6.60;56.08;99819.13;5460391;26;20056;-69
2024/04/13 02:09:43;;;;;;;2.40;0.60;;;;;;;6.63;55.68;99834.66;5452651;26;20372;-70
2024/04/13 02:12:10;;;;;;;0.50;0.50;;;;;;;6.53;56.15;99819.06;5467885;26;20491;-69
2024/04/13 02:14:36;;;;;;;2.53;1.15;;;;;;;6.62;55.82;99832.94;5471140;26;20765;-68
2024/04/13 02:17:05;;;;;;;4.38;2.17;;;;;;;6.49;56.16;99818.19;5484939;26;20002;-68
2024/04/13 02:19:31;;;;;;;4.38;1.38;;;;;;;6.47;55.88;99823.31;5398262;26;20025;-69
2024/04/13 02:21:57;;;;;;;1.58;0.70;;;;;;;6.35;55.73;99805.16;5487504;26;20010;-69
2024/04/13 02:24:24;;;;;;;2.08;1.05;;;;;;;6.58;55.58;99844.09;5468185;26;20009;-69
2024/04/13 02:26:51;;;;;;;3.75;2.33;;;;;;;6.46;55.47;99824.19;5397813;26;20040;-68
2024/04/13 02:29:17;;;;;;;1.58;0.70;;;;;;;6.48;55.32;99835.41;5429322;26;20359;-69
2024/04/13 02:31:43;;;;;;;2.83;0.98;;;;;;;6.60;55.63;99857.91;5456835;26;20020;-69
2024/04/13 02:34:10;;;;;;;1.60;0.70;;;;;;;6.48;55.77;99837.13;5466074;26;19994;-69
2024/04/13 02:36:38;;;;;;;10.05;6.07;;;;;;;6.56;55.32;99856.16;5437349;26;20022;-70
2024/04/13 02:39:07;;;;;;;11.18;6.85;;;;;;;6.57;55.57;99850.13;5463755;26;20003;-70
2024/04/13 02:41:34;;;;;;;2.15;1.00;;;;;;;6.45;55.45;99834.53;5469068;26;20034;-70
2024/04/13 02:44:00;;;;;;;5.20;1.00;;;;;;;6.48;55.25;99852.66;5466813;26;20021;-68
2024/04/13 02:46:26;;;;;;;3.20;1.10;;;;;;;6.39;55.67;99848.28;5469237;26;20009;-69
2024/04/13 02:48:52;;;;;;;2.53;1.48;;;;;;;6.25;55.64;99819.72;5399442;26;20007;-69
2024/04/13 02:51:18;;;;;;;1.15;0.77;;;;;;;6.28;55.46;99824.03;5432911;26;19995;-70
2024/04/13 02:53:47;;;;;;;4.47;2.08;;;;;;;6.50;55.73;99855.22;5372150;26;20014;-70
2024/04/13 02:56:13;;;;;;;2.17;1.20;;;;;;;6.29;55.72;99826.59;5371550;26;20003;-69
2024/04/13 02:58:39;;;;;;;3.75;1.40;;;;;;;6.59;55.94;99873.44;5372741;26;20499;-69
2024/04/13 03:01:06;;;;;;;1.63;0.95;;;;;;;6.50;56.06;99845.78;5365011;26;20038;-70
2024/04/13 03:03:31;;;;;;;5.30;2.75;;;;;;;6.57;56.23;99851.84;5402106;26;20014;-70
2024/04/13 03:05:58;;;;;;;17.73;10.02;;;;;;;6.77;56.29;99877.84;5370629;26;20003;-69
2024/04/13 03:08:24;;;;;;;11.07;6.00;;;;;;;6.78;55.61;99866.66;5399970;26;20035;-69
2024/04/13 03:10:58;;;;;;;7.28;3.45;;;;;;;6.86;56.02;99872.78;5401868;26;20017;-69
2024/04/13 03:13:24;;;;;;;10.32;6.13;;;;;;;6.97;55.66;99871.97;5397333;26;20002;-68
2024/04/13 03:16:17;;;;;;;1.85;1.40;;;;;;;7.02;55.93;99881.50;5368702;26;20475;-69
2024/04/13 03:18:47;;;;;;;7.82;4.05;;;;;;;7.08;55.65;99881.53;5362525;26;19999;-70
2024/04/13 03:21:13;;;;;;;8.05;3.80;;;;;;;6.95;55.68;99847.84;5365626;26;20101;-69
2024/04/13 03:23:40;;;;;;;7.50;4.20;;;;;;;7.22;55.83;99878.19;5398794;26;20456;-70
2024/04/13 03:26:08;;;;;;;21.60;13.00;;;;;;;7.23;55.58;99874.75;5371068;26;21552;-69
2024/04/13 03:28:35;;;;;;;2.75;1.73;;;;;;;7.33;55.25;99873.06;5367909;26;20003;-71
2024/04/13 03:31:03;;;;;;;5.10;1.20;;;;;;;7.28;55.49;99857.53;5363481;26;20018;-69
2024/04/13 03:33:29;;;;;;;4.60;0.90;;;;;;;7.40;55.12;99867.06;5399248;26;20010;-69
2024/04/13 03:36:00;;;;;;;20.95;11.55;;;;;;;7.53;55.16;99870.56;5385989;26;20003;-71
2024/04/13 03:38:27;;;;;;;4.07;2.28;;;;;;;7.66;54.90;99877.56;5345323;26;20018;-70
2024/04/13 03:41:00;;;;;;;6.40;2.72;;;;;;;7.75;54.80;99876.72;5431985;26;20015;-71
2024/04/13 03:43:26;;;;;;;4.43;2.05;;;;;;;7.91;54.64;99884.53;5400076;26;19999;-70
2024/04/13 03:45:53;;;;;;;8.10;5.55;;;;;;;7.99;54.42;99877.66;5399884;26;20484;-70
2024/04/13 03:48:20;;;;;;;12.68;8.10;;;;;;;8.07;54.32;99864.72;5368475;26;20007;-69
2024/04/13 03:50:47;;;;;;;11.30;5.82;;;;;;;8.22;54.19;99869.09;5431117;26;19999;-69
2024/04/13 03:53:13;;;;;;;20.38;12.15;;;;;;;8.38;53.51;99873.41;5399591;26;20077;-70
2024/04/13 03:55:39;;;;;;;12.88;9.05;;;;;;;8.35;53.72;99838.84;5399852;26;20007;-69
2024/04/13 03:58:05;;;;;;;2.42;1.05;;;;;;;8.62;53.25;99855.31;5396161;26;20078;-70
2024/04/13 04:00:31;;;;;;;4.57;1.08;;;;;;;8.71;53.17;99861.38;5400779;26;20022;-70
2024/04/13 04:02:57;;;;;;;11.52;6.90;;;;;;;8.72;52.71;99833.69;5362343;26;20015;-70
2024/04/13 04:05:23;;;;;;;13.25;8.50;;;;;;;8.91;52.47;99852.72;5385924;26;20422;-70
2024/04/13 04:07:50;;;;;;;4.03;1.30;;;;;;;9.06;52.46;99844.00;5428084;26;19994;-71
2024/04/13 04:10:16;;;;;;;5.57;3.13;;;;;;;9.26;51.88;99851.78;5400726;26;20834;-69
2024/04/13 04:12:44;;;;;;;4.75;2.40;;;;;;;9.47;51.91;99856.03;5359094;26;20003;-70
2024/04/13 04:15:11;;;;;;;3.53;1.92;;;;;;;9.54;51.29;99846.50;5357773;26;20380;-71
2024/04/13 04:17:37;;;;;;;2.58;1.00;;;;;;;9.61;50.53;99852.53;5396492;26;20021;-69
2024/04/13 04:20:03;;;;;;;7.10;3.83;;;;;;;9.73;50.47;99869.78;5401280;26;20003;-70
2024/04/13 04:22:30;;;;;;;11.82;5.63;;;;;;;9.88;50.36;99861.91;5369957;26;20027;-70
2024/04/13 04:24:56;;;;;;;2.17;0.95;;;;;;;9.88;49.69;99833.31;5373835;26;20490;-69
2024/04/13 04:27:23;;;;;;;3.60;1.55;;;;;;;10.05;49.42;99861.84;5373511;26;20002;-69
2024/04/13 04:29:50;;;;;;;1.60;1.30;;;;;;;10.07;48.78;99843.63;5339594;26;20010;-70
2024/04/13 04:32:17;;;;;;;5.38;3.95;;;;;;;10.24;49.07;99846.13;5344149;26;22455;-70
2024/04/13 04:34:43;;;;;;;8.43;4.68;;;;;;;10.53;48.01;99853.72;5371121;26;19999;-69
2024/04/13 04:37:10;;;;;;;1.33;0.95;;;;;;;10.70;47.91;99831.94;5393178;26;20009;-69
2024/04/13 04:39:36;;;;;;;2.40;2.00;;;;;;;10.69;47.40;99814.59;5433032;26;21886;-68
2024/04/13 04:42:06;;;;;;;3.35;0.95;;;;;;;11.11;47.24;99869.72;5375176;26;20003;-69
2024/04/13 04:44:32;;;;;;;2.40;1.52;;;;;;;11.28;46.39;99860.88;5435179;26;20003;-69
2024/04/13 04:46:58;;;;;;;6.68;3.40;;;;;;;11.31;46.20;99845.22;5402138;26;20334;-70
2024/04/13 04:49:24;;;;;;;5.22;3.00;;;;;;;11.48;45.68;99846.75;5378690;26;20013;-69
2024/04/13 04:51:50;;;;;;;9.25;4.72;;;;;;;11.69;45.37;99843.88;5437239;26;20016;-70
2024/04/13 04:54:19;;;;;;;2.13;0.88;;;;;;;11.93;45.04;99854.00;5439692;26;20102;-69
2024/04/13 04:56:45;;;;;;;8.90;6.20;;;;;;;12.07;44.82;99859.94;5401218;26;20034;-68
2024/04/13 04:59:11;;;;;;;6.72;4.03;;;;;;;12.27;44.71;99864.84;5465059;26;20009;-71
2024/04/13 05:01:37;;;;;;;3.60;1.52;;;;;;;12.49;43.74;99864.50;5455748;26;20010;-72
2024/04/13 05:04:04;;;;;;;3.63;1.00;;;;;;;12.50;43.40;99851.47;5439249;26;20003;-71
2024/04/13 05:06:30;;;;;;;7.30;4.65;;;;;;;12.40;43.44;99821.16;5464571;26;20074;-71
2024/04/13 05:08:57;;;;;;;10.70;7.55;;;;;;;13.14;43.64;99857.34;5435153;26;20020;-71
2024/04/13 05:11:23;;;;;;;3.83;1.20;;;;;;;13.57;42.78;99813.88;5484224;26;20009;-71
2024/04/13 05:13:49;;;;;;;5.07;1.65;;;;;;;15.41;41.88;99863.53;5468841;26;20006;-68
2024/04/13 05:16:15;;;;;;;2.65;1.73;;;;;;;17.44;39.17;99828.22;5467826;26;20095;-68
2024/04/13 05:18:41;;;;;;;4.07;2.53;;;;;;;19.60;37.14;99835.25;5406509;26;20448;-69
2024/04/13 05:21:07;;;;;;;6.00;4.43;;;;;;;21.18;34.83;99809.97;5468174;26;19998;-70
2024/04/13 05:23:33;;;;;;;9.10;5.93;;;;;;;22.48;32.43;99801.97;5437612;26;20012;-69
2024/04/13 05:26:00;;;;;;;15.60;11.43;;;;;;;24.05;31.06;99811.91;5462409;26;20025;-69
2024/04/13 05:28:26;;;;;;;4.72;3.60;;;;;;;25.45;29.41;99813.22;5469433;26;19998;-70
2024/04/13 05:30:56;;;;;;;5.40;4.60;;;;;;;26.22;28.01;99773.94;5439591;26;20049;-69
2024/04/13 05:33:24;;;;;;;13.35;10.70;;;;;;;27.44;26.46;99785.91;5393450;26;20360;-71
2024/04/13 05:35:51;;;;;;;4.53;1.88;;;;;;;28.18;25.13;99784.47;5467823;26;20405;-72
2024/04/13 05:38:18;;;;;;;4.68;3.30;;;;;;;28.82;24.19;99798.75;5463005;26;20498;-69
2024/04/13 05:40:44;;;;;;;6.22;4.25;;;;;;;29.30;23.09;99797.31;5471824;26;20002;-71
2024/04/13 05:43:10;;;;;;;3.72;1.40;;;;;;;29.90;22.08;99784.94;5467022;26;20009;-69
2024/04/13 05:45:36;;;;;;;3.63;3.33;;;;;;;30.21;21.35;99798.25;5467749;26;20012;-70
2024/04/13 05:48:03;;;;;;;6.75;4.60;;;;;;;30.42;20.63;99781.13;5465720;26;20022;-70
2024/04/13 05:50:29;;;;;;;7.07;5.10;;;;;;;30.51;19.93;99788.34;5430310;26;20017;-72
2024/04/13 05:52:56;;;;;;;3.78;3.13;;;;;;;30.64;19.72;99775.50;5436966;26;20058;-69
2024/04/13 05:55:22;;;;;;;3.83;1.52;;;;;;;30.79;19.05;99796.50;5468166;26;20002;-70
2024/04/13 05:57:52;;;;;;;3.92;1.65;;;;;;;30.55;19.08;99775.47;5468795;26;20017;-70
2024/04/13 06:00:18;;;;;;;2.25;1.30;;;;;;;30.10;18.86;99791.19;5435499;26;20464;-70
2024/04/13 06:02:44;;;;;;;2.22;1.58;;;;;;;29.47;18.94;99778.91;5469074;26;20556;-68
2024/04/13 06:05:11;;;;;;;2.83;1.48;;;;;;;29.21;19.02;99774.00;5466779;26;20006;-69
2024/04/13 06:07:37;;;;;;;4.70;1.50;;;;;;;29.58;18.74;99784.16;5437976;26;20006;-69
2024/04/13 06:10:07;;;;;;;3.38;1.80;;;;;;;30.45;18.17;99773.66;5464960;26;20007;-71
2024/04/13 06:12:34;;;;;;;1.52;1.17;;;;;;;31.48;17.21;99762.19;5469924;26;20002;-71
2024/04/13 06:15:00;;;;;;;3.17;1.70;;;;;;;32.36;17.56;99798.41;5467201;26;20002;-70
2024/04/13 06:17:27;;;;;;;4.63;2.28;;;;;;;32.09;16.33;99764.34;5438223;26;19998;-71
2024/04/13 06:19:53;;;;;;;2.50;2.10;;;;;;;32.44;16.39;99774.25;5433960;26;20010;-70
2024/04/13 06:22:23;;;;;;;4.18;1.52;;;;;;;33.01;16.02;99786.41;5463320;26;20006;-71
2024/04/13 06:24:50;;;;;;;5.28;1.63;;;;;;;33.39;15.81;99786.13;5463227;26;20003;-70
2024/04/13 06:27:17;;;;;;;4.10;2.20;;;;;;;32.84;15.18;99750.50;5465743;26;20011;-72
2024/04/13 06:29:50;;;;;;;3.40;1.92;;;;;;;31.84;15.35;99782.94;5466395;26;20365;-70
2024/04/13 06:32:18;;;;;;;3.72;1.75;;;;;;;31.34;16.36;99770.75;5471203;26;20011;-69
2024/04/13 06:34:44;;;;;;;2.92;2.00;;;;;;;31.26;16.33;99787.63;5434269;26;20565;-71
2024/04/13 06:37:12;;;;;;;3.72;1.90;;;;;;;29.93;16.40;99747.09;5434372;26;20009;-68
2024/04/13 06:39:38;;;;;;;4.63;1.55;;;;;;;29.13;17.03;99774.66;5467507;26;20376;-68
2024/04/13 06:42:05;;;;;;;4.40;1.60;;;;;;;28.82;17.51;99784.53;5466375;26;20013;-69
2024/04/13 06:44:31;;;;;;;3.00;1.65;;;;;;;28.71;17.24;99777.38;5430337;26;19994;-70
2024/04/13 06:46:57;;;;;;;2.78;1.70;;;;;;;28.14;17.13;99755.44;5433643;26;20021;-69
2024/04/13 06:49:24;;;;;;;3.72;1.60;;;;;;;28.15;17.72;99781.19;5493548;26;20003;-69
2024/04/13 06:51:50;;;;;;;4.38;2.10;;;;;;;28.96;17.27;99765.41;5431236;26;20006;-69
2024/04/13 06:54:16;;;;;;;3.25;1.75;;;;;;;30.26;16.67;99746.84;5468950;26;20708;-69
2024/04/13 06:56:43;;;;;;;4.10;2.75;;;;;;;31.15;16.56;99774.38;5409079;26;20013;-71
2024/04/13 06:59:09;;;;;;;2.60;1.60;;;;;;;31.28;15.77;99755.22;5465373;26;20064;-69
2024/04/13 07:01:35;;;;;;;4.25;2.28;;;;;;;31.46;15.55;99733.78;5437324;26;20002;-69
2024/04/13 07:04:01;;;;;;;5.65;2.42;;;;;;;32.05;15.36;99766.50;5435202;26;20075;-70
2024/04/13 07:06:27;;;;;;;3.70;2.33;;;;;;;33.41;15.03;99740.97;5466679;26;20002;-70
2024/04/13 07:08:53;;;;;;;6.15;3.83;;;;;;;35.29;13.96;99767.25;5435919;26;20026;-69
2024/04/13 07:11:20;;;;;;;5.20;2.65;;;;;;;36.75;13.01;99750.31;5437201;26;20025;-67
2024/04/13 07:13:46;;;;;;;10.25;7.72;;;;;;;38.00;12.01;99755.00;5464787;26;20013;-69
2024/04/13 07:16:13;;;;;;;8.00;5.10;;;;;;;38.92;12.52;99748.81;5465996;26;20403;-70
2024/04/13 07:18:39;;;;;;;7.43;5.13;;;;;;;40.08;11.87;99748.97;5466661;26;20011;-70
2024/04/13 07:21:05;;;;;;;4.05;1.88;;;;;;;40.82;10.59;99733.44;5417100;26;20006;-70
2024/04/13 07:23:32;;;;;;;5.82;2.08;;;;;;;41.29;10.96;99718.78;5464665;26;19994;-71
2024/04/13 07:25:58;;;;;;;4.90;2.33;;;;;;;42.13;10.25;99735.91;5426211;26;20014;-69
2024/04/13 07:28:25;;;;;;;3.22;1.92;;;;;;;42.55;10.15;99737.22;5458075;26;20002;-72
2024/04/13 07:30:51;;;;;;;5.35;2.05;;;;;;;42.55;10.15;99737.22;5407201;26;20006;-72
2024/04/13 07:33:17;;;;;;;13.48;5.45;;;;;;;43.12;9.55;99733.41;5468183;26;20025;-73
2024/04/13 07:35:43;;;;;;;3.63;1.88;;;;;;;43.30;8.40;99727.13;5466317;26;20435;-71
2024/04/13 07:38:10;;;;;;;6.60;3.30;;;;;;;43.32;8.59;99734.00;5435439;26;20025;-72
2024/04/13 07:40:36;;;;;;;9.65;6.45;;;;;;;43.66;9.01;99725.34;5451529;26;20009;-72
2024/04/13 07:43:02;;;;;;;4.82;2.70;;;;;;;44.11;7.91;99726.78;5367137;26;20487;-72
2024/04/13 07:45:28;;;;;;;7.72;3.80;;;;;;;43.99;8.77;99709.44;5406758;26;21994;-71
2024/04/13 07:47:54;;;;;;;7.43;4.72;;;;;;;44.26;7.85;99704.34;5395675;26;20087;-72
2024/04/13 07:50:21;;;;;;;13.38;7.68;;;;;;;44.68;7.87;99723.41;5464971;26;20002;-71
2024/04/13 07:52:47;;;;;;;6.53;5.07;;;;;;;44.46;8.12;99728.69;5467405;26;20010;-71
2024/04/13 07:55:13;;;;;;;11.40;6.85;;;;;;;43.39;8.53;99731.19;5467025;26;20044;-71
2024/04/13 07:57:39;;;;;;;7.57;4.10;;;;;;;42.77;7.47;99717.63;5464998;26;20002;-69
2024/04/13 08:00:06;;;;;;;8.45;3.70;;;;;;;42.26;8.74;99732.19;5404165;26;20116;-72
2024/04/13 08:02:39;;;;;;;4.90;1.85;;;;;;;41.34;8.49;99732.59;5467068;26;20018;-70
2024/04/13 08:05:11;;;;;;;9.32;4.05;;;;;;;40.71;9.00;99713.13;5464660;26;20745;-71
2024/04/13 08:07:37;;;;;;;11.50;5.13;;;;;;;40.43;9.05;99708.75;5468396;26;20040;-71
2024/04/13 08:10:03;;;;;;;6.85;4.13;;;;;;;39.97;8.82;99685.09;5468119;26;20556;-70
2024/04/13 08:12:31;;;;;;;8.45;3.88;;;;;;;39.72;9.53;99713.75;5437711;26;20002;-72
2024/04/13 08:14:57;;;;;;;7.45;4.15;;;;;;;38.90;9.27;99721.84;5434841;26;20015;-70
2024/04/13 08:17:26;;;;;;;6.97;6.15;;;;;;;38.13;9.98;99727.13;5484488;26;20009;-70
2024/04/13 08:19:54;;;;;;;7.47;2.08;;;;;;;37.62;9.59;99709.09;5463131;26;20006;-69
2024/04/13 08:22:20;;;;;;;7.05;1.83;;;;;;;37.60;9.27;99705.75;5465191;26;20021;-71
2024/04/13 08:24:46;;;;;;;3.28;1.98;;;;;;;37.97;9.97;99720.09;5467882;26;20364;-71
2024/04/13 08:27:12;;;;;;;5.65;2.30;;;;;;;38.06;9.26;99704.50;5466566;26;20002;-70
2024/04/13 08:29:38;;;;;;;4.25;2.20;;;;;;;37.68;9.73;99711.00;5464338;26;20045;-71
2024/04/13 08:32:04;;;;;;;6.90;2.05;;;;;;;37.56;10.23;99713.41;5464808;26;20010;-71
2024/04/13 08:34:31;;;;;;;4.88;2.30;;;;;;;37.82;9.73;99702.00;5462584;26;20072;-70
2024/04/13 08:36:57;;;;;;;6.30;2.30;;;;;;;37.29;10.40;99674.28;5463201;26;20029;-71
2024/04/13 08:39:23;;;;;;;8.02;2.90;;;;;;;37.65;10.09;99708.69;5463649;26;19999;-71
2024/04/13 08:42:28;;;;;;;10.52;3.25;;;;;;;37.79;9.69;99702.38;5465722;26;20109;-71
2024/04/13 08:44:56;;;;;;;7.22;2.75;;;;;;;37.00;10.37;99689.56;5389796;26;20022;-73
2024/04/13 08:47:22;;;;;;;5.78;3.20;;;;;;;36.72;10.82;99704.63;5464880;26;20010;-71
2024/04/13 08:49:50;;;;;;;4.15;2.30;;;;;;;36.18;10.86;99690.28;5433782;26;22653;-72
2024/04/13 08:52:18;;;;;;;3.45;2.22;;;;;;;36.22;10.88;99700.72;5464216;26;20015;-71
2024/04/13 08:54:46;;;;;;;8.90;3.25;;;;;;;36.32;11.27;99702.13;5465823;26;20013;-71
2024/04/13 08:57:19;;;;;;;5.75;2.53;;;;;;;36.38;10.86;99670.78;5451665;26;20113;-72
2024/04/13 08:59:49;;;;;;;10.38;2.85;;;;;;;36.88;10.54;99690.03;5452122;26;20377;-72
2024/04/13 09:02:23;;;;;;;10.77;2.88;;;;;;;37.04;11.12;99697.16;5460893;26;20006;-72
2024/04/13 09:04:50;;;;;;;3.40;2.13;;;;;;;37.08;10.19;99694.91;5485272;26;20045;-71
2024/04/13 09:07:20;;;;;;;7.53;2.80;;;;;;;37.32;10.83;99685.56;5462834;26;20102;-72
2024/04/13 09:09:48;;;;;;;7.85;2.40;;;;;;;38.08;10.10;99672.56;5457595;26;20345;-70
2024/04/13 09:12:15;;;;;;;6.57;2.67;;;;;;;39.11;9.66;99668.38;5463791;26;20009;-71
2024/04/13 09:14:41;;;;;;;4.07;2.15;;;;;;;39.14;9.20;99662.53;5465897;26;20120;-71
2024/04/13 09:17:07;;;;;;;11.73;2.67;;;;;;;38.87;10.14;99660.53;5433780;26;20002;-71
2024/04/13 09:19:33;;;;;;;5.38;2.58;;;;;;;38.31;9.86;99669.59;5462005;26;20088;-71
2024/04/13 09:22:00;;;;;;;6.65;2.97;;;;;;;38.47;10.20;99652.16;5466175;26;20345;-72
2024/04/13 09:24:26;;;;;;;10.75;2.53;;;;;;;39.52;9.42;99667.44;5453083;26;20010;-71
2024/04/13 09:26:53;;;;;;;5.90;1.77;;;;;;;38.81;10.25;99664.06;5466232;26;20014;-70
2024/04/13 09:29:27;;;;;;;6.40;1.80;;;;;;;36.63;10.33;99665.13;5466427;26;20021;-70
2024/04/13 09:31:54;;;;;;;5.60;1.60;;;;;;;34.30;10.69;99667.53;5457174;26;20476;-71
2024/04/13 09:34:20;;;;;;;4.82;1.98;;;;;;;32.57;12.77;99682.31;5436821;26;20457;-71
2024/04/13 09:36:49;;;;;;;2.22;1.40;;;;;;;31.13;13.22;99669.72;5469866;26;20001;-72
2024/04/13 09:39:22;;;;;;;3.67;1.60;;;;;;;30.29;13.42;99683.03;5464683;26;20002;-70
2024/04/13 09:41:49;;;;;;;4.05;1.52;;;;;;;29.89;13.69;99667.94;5455338;26;20014;-70
2024/04/13 09:44:27;;;;;;;6.13;1.95;;;;;;;30.43;14.52;99662.06;5439967;26;20495;-71
2024/04/13 09:46:53;;;;;;;6.20;2.38;;;;;;;31.36;14.35;99663.97;5409544;26;20364;-71
2024/04/13 09:49:19;;;;;;;5.13;1.90;;;;;;;32.04;13.98;99665.28;5463275;26;20037;-73
2024/04/13 09:51:49;;;;;;;7.57;2.63;;;;;;;33.01;12.71;99661.66;5468557;26;20055;-71
2024/04/13 09:54:15;;;;;;;11.13;3.78;;;;;;;33.69;13.18;99659.81;5400590;26;20002;-72
2024/04/13 09:56:48;;;;;;;8.05;2.10;;;;;;;33.42;13.02;99647.47;5439124;26;20010;-72
2024/04/13 09:59:22;;;;;;;5.70;1.88;;;;;;;32.54;12.69;99668.31;5455134;26;20009;-71
2024/04/13 10:01:49;;;;;;;7.90;2.10;;;;;;;32.44;13.08;99653.13;5436464;26;20011;-70
2024/04/13 10:04:15;;;;;;;5.18;2.10;;;;;;;32.94;13.00;99653.38;5471265;26;20002;-71
2024/04/13 10:06:44;;;;;;;7.68;2.90;;;;;;;33.31;12.67;99662.91;5431628;26;20672;-71
2024/04/13 10:09:14;;;;;;;4.70;2.47;;;;;;;33.55;12.87;99653.22;5474710;26;20006;-71
2024/04/13 10:11:43;;;;;;;4.03;1.70;;;;;;;33.27;12.68;99653.47;5408830;26;20013;-70
2024/04/13 10:14:11;;;;;;;4.55;1.88;;;;;;;33.06;13.43;99621.59;5440305;26;20007;-71
2024/04/13 10:16:39;;;;;;;5.20;2.10;;;;;;;33.69;13.09;99651.72;5469080;26;20047;-71
2024/04/13 10:19:09;;;;;;;7.65;2.78;;;;;;;34.40;12.38;99634.97;5464148;26;20362;-71
2024/04/13 10:21:35;;;;;;;3.63;1.70;;;;;;;35.17;12.43;99640.78;5467452;26;19998;-72
2024/04/13 10:24:01;;;;;;;11.82;2.40;;;;;;;34.12;12.35;99639.91;5470833;26;19998;-72
2024/04/13 10:26:28;;;;;;;6.13;2.30;;;;;;;32.91;13.33;99656.41;5436898;26;20017;-71
2024/04/13 10:29:01;;;;;;;2.80;1.70;;;;;;;31.42;13.44;99598.84;5466551;26;20038;-70
2024/04/13 10:31:32;;;;;;;3.40;1.75;;;;;;;31.72;13.95;99610.22;5422186;26;20013;-72
2024/04/13 10:33:59;;;;;;;5.15;2.00;;;;;;;32.43;13.05;99602.97;5468238;26;20021;-71
2024/04/13 10:36:37;;;;;;;5.40;1.55;;;;;;;33.25;13.00;99612.34;5402249;26;21187;-71
2024/04/13 10:39:05;;;;;;;3.78;1.83;;;;;;;33.03;13.45;99627.31;5458721;26;20472;-73
2024/04/13 10:41:36;;;;;;;7.05;2.42;;;;;;;31.45;13.54;99595.84;5410759;26;20021;-72
2024/04/13 10:44:04;;;;;;;3.45;1.80;;;;;;;30.24;14.83;99593.22;5424316;26;20507;-71
2024/04/13 10:46:32;;;;;;;4.93;1.85;;;;;;;29.30;14.86;99590.16;5404639;26;20468;-74
2024/04/13 10:49:00;;;;;;;5.13;1.85;;;;;;;28.37;16.06;99625.09;5459744;26;20011;-71
2024/04/13 10:51:26;;;;;;;5.85;2.08;;;;;;;27.33;17.03;99631.88;5393858;26;20026;-71
2024/04/13 10:53:52;;;;;;;6.15;2.50;;;;;;;26.81;17.41;99626.25;5371739;26;20003;-71
2024/04/13 10:56:18;;;;;;;6.10;2.35;;;;;;;26.12;17.29;99589.84;5342317;26;20205;-72
2024/04/13 10:58:44;;;;;;;18.95;3.05;;;;;;;25.74;17.87;99614.91;5400656;26;20014;-73
2024/04/13 11:01:11;;;;;;;8.20;2.65;;;;;;;25.36;18.14;99625.63;5401383;26;20013;-70
2024/04/13 11:03:37;;;;;;;4.80;2.00;;;;;;;24.64;18.60;99591.75;5370787;26;20013;-70
2024/04/13 11:06:05;;;;;;;4.82;2.10;;;;;;;24.49;19.02;99614.94;5357580;26;20012;-71
2024/04/13 11:08:32;;;;;;;9.27;2.50;;;;;;;24.10;19.62;99627.38;5396562;26;20013;-69
2024/04/13 11:11:01;;;;;;;11.68;3.00;;;;;;;23.78;19.98;99620.59;5402383;26;20052;-71
2024/04/13 11:13:29;;;;;;;7.78;3.03;;;;;;;23.51;19.99;99620.63;5424141;26;20003;-70
2024/04/13 11:15:55;;;;;;;7.43;2.45;;;;;;;23.12;20.51;99593.91;5370124;26;20013;-71
2024/04/13 11:18:22;;;;;;;4.70;1.85;;;;;;;23.11;20.46;99586.91;5369745;26;20131;-70
2024/04/13 11:20:54;;;;;;;13.73;2.80;;;;;;;22.95;20.65;99608.25;5356373;26;20036;-69
2024/04/13 11:23:21;;;;;;;6.32;2.45;;;;;;;22.64;21.11;99584.53;5359071;26;20017;-71
2024/04/13 11:25:47;;;;;;;7.78;2.05;;;;;;;22.55;21.42;99588.59;5372913;26;20080;-72
2024/04/13 11:28:15;;;;;;;6.88;2.20;;;;;;;22.77;21.63;99621.72;5368509;26;20038;-72
2024/04/13 11:30:41;;;;;;;13.65;3.25;;;;;;;22.62;21.89;99617.38;5342038;26;20022;-70
2024/04/13 11:33:14;;;;;;;10.35;2.50;;;;;;;22.61;21.80;99600.63;5370394;26;20007;-71
2024/04/13 11:35:40;;;;;;;6.93;2.85;;;;;;;22.35;22.14;99579.19;5385410;26;20422;-71
2024/04/13 11:38:06;;;;;;;5.72;2.90;;;;;;;22.11;22.33;99608.03;5390368;26;19998;-71